createdAt,value
2023-05-17T00:02:01.573Z,2.05
2023-05-17T00:04:28.064Z,2.15
2023-05-17T00:06:54.601Z,1.70
2023-05-17T00:09:21.021Z,2.17
2023-05-17T00:11:47.761Z,1.98
2023-05-17T00:14:14.179Z,2.20
2023-05-17T00:16:40.600Z,1.95
2023-05-17T00:19:07.310Z,1.90
2023-05-17T00:21:33.818Z,1.80
2023-05-17T00:24:00.340Z,1.83
2023-05-17T00:26:26.808Z,1.90
2023-05-17T00:28:53.276Z,2.35
2023-05-17T00:31:19.752Z,2.17
2023-05-17T00:33:46.226Z,1.80
2023-05-17T00:36:12.729Z,2.20
2023-05-17T00:38:39.227Z,2.00
2023-05-17T00:41:05.701Z,2.15
2023-05-17T00:43:32.143Z,2.05
2023-05-17T00:45:58.611Z,2.13
2023-05-17T00:48:25.211Z,1.83
2023-05-17T00:50:51.898Z,2.40
2023-05-17T00:53:18.360Z,2.22
2023-05-17T00:55:44.857Z,2.20
2023-05-17T00:58:11.311Z,2.42
2023-05-17T01:00:37.781Z,2.17
2023-05-17T01:03:04.368Z,2.80
2023-05-17T01:05:30.967Z,2.58
2023-05-17T01:07:57.554Z,2.55
2023-05-17T01:10:24.031Z,3.00
2023-05-17T01:12:50.466Z,3.00
2023-05-17T01:15:16.996Z,2.63
2023-05-17T01:17:43.468Z,2.78
2023-05-17T01:20:10.143Z,2.58
2023-05-17T01:22:36.757Z,2.33
2023-05-17T01:25:03.224Z,2.78
2023-05-17T01:27:29.706Z,2.85
2023-05-17T01:29:56.187Z,2.38
2023-05-17T01:32:22.701Z,2.30
2023-05-17T01:34:49.215Z,2.72
2023-05-17T01:37:15.694Z,2.60
2023-05-17T01:39:42.188Z,2.28
2023-05-17T01:42:08.622Z,2.35
2023-05-17T01:44:35.102Z,2.33
2023-05-17T01:47:01.602Z,2.35
2023-05-17T01:49:28.056Z,2.70
2023-05-17T01:51:54.492Z,2.72
2023-05-17T01:54:20.956Z,3.53
2023-05-17T01:56:47.439Z,2.70
2023-05-17T01:59:13.868Z,2.58
2023-05-17T02:01:40.308Z,3.10
2023-05-17T02:04:06.731Z,3.22
2023-05-17T02:06:33.246Z,3.08
2023-05-17T02:08:59.750Z,3.03
2023-05-17T02:11:26.235Z,3.15
2023-05-17T02:13:52.841Z,2.53
2023-05-17T02:16:19.290Z,2.85
2023-05-17T02:18:45.874Z,2.50
2023-05-17T02:21:12.379Z,3.05
2023-05-17T02:23:38.879Z,3.25
2023-05-17T02:26:05.342Z,2.80
2023-05-17T02:28:31.787Z,2.83
2023-05-17T02:30:58.196Z,2.97
2023-05-17T02:33:24.799Z,2.97
2023-05-17T02:35:51.335Z,2.55
2023-05-17T02:38:17.874Z,3.28
2023-05-17T02:40:44.339Z,2.78
2023-05-17T02:43:10.817Z,2.25
2023-05-17T02:45:37.299Z,2.40
2023-05-17T02:48:03.774Z,2.30
2023-05-17T02:50:30.299Z,2.75
2023-05-17T02:52:56.749Z,2.25
2023-05-17T02:55:23.252Z,2.63
2023-05-17T02:57:49.683Z,2.58
2023-05-17T03:00:16.195Z,2.50
2023-05-17T03:02:42.749Z,2.63
2023-05-17T03:05:09.278Z,3.05
2023-05-17T03:07:35.751Z,2.35
2023-05-17T03:10:02.233Z,2.55
2023-05-17T03:12:29.689Z,2.30
2023-05-17T03:14:56.275Z,2.78
2023-05-17T03:17:22.721Z,2.05
2023-05-17T03:19:49.311Z,2.50
2023-05-17T03:22:15.869Z,3.15
2023-05-17T03:24:42.284Z,1.65
2023-05-17T03:27:08.799Z,2.22
2023-05-17T03:29:35.272Z,1.98
2023-05-17T03:32:01.760Z,2.00
2023-05-17T03:34:28.261Z,1.80
2023-05-17T03:36:54.686Z,1.70
2023-05-17T03:39:21.160Z,1.80
2023-05-17T03:41:47.588Z,1.92
2023-05-17T03:44:14.068Z,1.80
2023-05-17T03:46:40.509Z,1.60
2023-05-17T03:49:07.098Z,1.80
2023-05-17T03:51:33.670Z,1.73
2023-05-17T03:54:00.172Z,1.75
2023-05-17T03:56:26.672Z,1.20
2023-05-17T03:58:53.147Z,1.63
2023-05-17T04:01:19.613Z,1.85
2023-05-17T04:03:46.124Z,1.50
2023-05-17T04:06:12.602Z,1.88
2023-05-17T04:08:39.093Z,1.58
2023-05-17T04:11:05.578Z,1.60
2023-05-17T04:13:32.056Z,1.83
2023-05-17T04:15:58.545Z,1.80
2023-05-17T04:18:25.166Z,1.70
2023-05-17T04:20:51.661Z,1.63
2023-05-17T04:23:18.112Z,2.00
2023-05-17T04:25:44.540Z,1.55
2023-05-17T04:28:10.967Z,2.28
2023-05-17T04:30:37.438Z,1.48
2023-05-17T04:33:04.025Z,2.03
2023-05-17T04:35:30.743Z,1.90
2023-05-17T04:37:57.312Z,2.03
2023-05-17T04:40:23.809Z,2.30
2023-05-17T04:42:50.237Z,2.03
2023-05-17T04:45:16.905Z,2.05
2023-05-17T04:47:43.349Z,2.10
2023-05-17T04:50:09.877Z,2.38
2023-05-17T04:52:36.357Z,2.35
2023-05-17T04:55:02.800Z,2.22
2023-05-17T04:57:29.244Z,2.72
2023-05-17T04:59:55.667Z,2.45
2023-05-17T05:02:22.099Z,2.30
2023-05-17T05:04:48.593Z,2.72
2023-05-17T05:07:15.131Z,3.10
2023-05-17T05:09:41.610Z,2.65
2023-05-17T05:12:08.108Z,2.55
2023-05-17T05:14:34.537Z,3.15
2023-05-17T05:17:00.996Z,2.20
2023-05-17T05:19:29.886Z,2.40
2023-05-17T05:21:56.337Z,2.67
2023-05-17T05:24:22.800Z,2.67
2023-05-17T05:26:49.290Z,3.22
2023-05-17T05:29:15.772Z,2.58
2023-05-17T05:31:42.308Z,2.38
2023-05-17T05:34:08.863Z,2.60
2023-05-17T05:36:35.318Z,2.40
2023-05-17T05:39:01.752Z,2.90
2023-05-17T05:41:28.187Z,2.10
2023-05-17T05:43:56.881Z,2.33
2023-05-17T05:46:23.357Z,2.55
2023-05-17T05:48:49.870Z,2.20
2023-05-17T05:51:16.380Z,2.00
2023-05-17T05:53:42.851Z,2.15
2023-05-17T05:56:09.446Z,1.73
2023-05-17T05:58:35.932Z,2.10
2023-05-17T06:01:04.093Z,1.60
2023-05-17T06:03:32.469Z,1.70
2023-05-17T06:05:59.012Z,1.95
2023-05-17T06:08:25.581Z,1.73
2023-05-17T06:10:52.026Z,2.13
2023-05-17T06:13:18.458Z,2.00
2023-05-17T06:15:44.930Z,1.70
2023-05-17T06:18:11.417Z,2.05
2023-05-17T06:20:37.934Z,2.20
2023-05-17T06:23:04.369Z,1.83
2023-05-17T06:25:30.830Z,1.60
2023-05-17T06:27:57.274Z,2.65
2023-05-17T06:30:23.746Z,1.85
2023-05-17T06:32:50.254Z,1.77
2023-05-17T06:35:17.044Z,2.00
2023-05-17T06:37:43.494Z,1.98
2023-05-17T06:40:16.053Z,1.77
2023-05-17T06:42:43.284Z,1.90
2023-05-17T06:45:09.721Z,1.80
2023-05-17T06:47:36.286Z,1.60
2023-05-17T06:50:02.840Z,2.45
2023-05-17T06:52:29.292Z,1.70
2023-05-17T06:54:55.714Z,1.50
2023-05-17T06:57:22.206Z,1.60
2023-05-17T06:59:48.824Z,1.10
2023-05-17T07:02:18.102Z,1.30
2023-05-17T07:04:44.575Z,2.13
2023-05-17T07:07:11.060Z,1.58
2023-05-17T07:09:37.484Z,1.40
2023-05-17T07:12:03.968Z,1.83
2023-05-17T07:14:30.435Z,1.40
2023-05-17T07:16:56.925Z,1.80
2023-05-17T07:19:23.654Z,1.95
2023-05-17T07:21:50.175Z,1.65
2023-05-17T07:24:16.647Z,1.40
2023-05-17T07:26:43.098Z,1.30
2023-05-17T07:29:09.644Z,1.77
2023-05-17T07:31:36.136Z,1.70
2023-05-17T07:34:02.683Z,2.08
2023-05-17T07:36:29.259Z,1.88
2023-05-17T07:38:55.762Z,1.50
2023-05-17T07:41:22.383Z,1.40
2023-05-17T07:43:48.908Z,1.73
2023-05-17T07:46:15.336Z,1.95
2023-05-17T07:48:41.918Z,1.40
2023-05-17T07:51:08.515Z,1.20
2023-05-17T07:53:34.996Z,1.70
2023-05-17T07:56:01.493Z,1.63
2023-05-17T07:58:27.906Z,1.38
2023-05-17T08:00:54.395Z,1.20
2023-05-17T08:03:21.833Z,1.85
2023-05-17T08:05:48.434Z,1.30
2023-05-17T08:08:14.899Z,1.73
2023-05-17T08:10:41.353Z,1.30
2023-05-17T08:13:07.794Z,1.67
2023-05-17T08:15:34.216Z,1.23
2023-05-17T08:18:03.746Z,1.10
2023-05-17T08:20:31.040Z,1.13
2023-05-17T08:22:57.475Z,1.33
2023-05-17T08:25:23.939Z,1.23
2023-05-17T08:27:50.361Z,1.50
2023-05-17T08:30:28.230Z,1.45
2023-05-17T08:32:55.749Z,1.80
2023-05-17T08:35:22.283Z,1.55
2023-05-17T08:37:48.771Z,1.70
2023-05-17T08:40:15.303Z,1.30
2023-05-17T08:42:41.820Z,1.38
2023-05-17T08:45:08.285Z,1.27
2023-05-17T08:47:34.858Z,1.90
2023-05-17T08:50:01.391Z,1.38
2023-05-17T08:52:27.871Z,1.50
2023-05-17T08:54:54.366Z,1.92
2023-05-17T08:57:20.854Z,2.28
2023-05-17T08:59:47.393Z,1.70
2023-05-17T09:02:13.894Z,1.65
2023-05-17T09:04:40.542Z,1.48
2023-05-17T09:07:07.114Z,1.90
2023-05-17T09:09:33.605Z,1.38
2023-05-17T09:12:00.078Z,0.90
2023-05-17T09:14:26.540Z,1.40
2023-05-17T09:16:53.025Z,1.17
2023-05-17T09:19:19.532Z,1.83
2023-05-17T09:21:46.047Z,1.40
2023-05-17T09:24:12.484Z,1.10
2023-05-17T09:26:39.992Z,1.00
2023-05-17T09:29:06.483Z,1.10
2023-05-17T09:31:32.902Z,1.35
2023-05-17T09:33:59.377Z,1.60
2023-05-17T09:36:25.866Z,1.30
2023-05-17T09:38:52.306Z,2.00
2023-05-17T09:41:18.734Z,1.10
2023-05-17T09:43:45.190Z,1.20
2023-05-17T09:46:11.670Z,1.80
2023-05-17T09:48:38.238Z,1.25
2023-05-17T09:51:04.750Z,1.50
2023-05-17T09:53:31.205Z,1.75
2023-05-17T09:55:57.633Z,1.60
2023-05-17T09:58:24.117Z,1.30
2023-05-17T10:00:50.590Z,1.00
2023-05-17T10:03:17.133Z,1.17
2023-05-17T10:05:43.694Z,1.60
2023-05-17T10:08:10.151Z,1.30
2023-05-17T10:10:36.630Z,1.45
2023-05-17T10:13:03.113Z,1.30
2023-05-17T10:15:29.780Z,1.10
2023-05-17T10:17:56.407Z,1.23
2023-05-17T10:20:22.850Z,1.02
2023-05-17T10:22:49.339Z,1.33
2023-05-17T10:25:15.790Z,1.33
2023-05-17T10:27:42.256Z,1.30
2023-05-17T10:30:08.733Z,1.27
2023-05-17T10:32:35.281Z,1.60
2023-05-17T10:35:11.464Z,1.75
2023-05-17T10:37:38.575Z,1.40
2023-05-17T10:40:05.027Z,1.60
2023-05-17T10:42:31.454Z,1.80
2023-05-17T10:44:57.945Z,1.80
2023-05-17T10:47:24.433Z,1.88
2023-05-17T10:49:50.887Z,1.30
2023-05-17T10:52:17.367Z,1.90
2023-05-17T10:54:43.898Z,2.58
2023-05-17T10:57:10.365Z,2.00
2023-05-17T10:59:36.866Z,1.92
2023-05-17T11:02:03.349Z,2.13
2023-05-17T11:04:29.903Z,1.85
2023-05-17T11:06:56.372Z,1.58
2023-05-17T11:09:22.771Z,2.17
2023-05-17T11:11:49.256Z,1.88
2023-05-17T11:14:15.664Z,1.90
2023-05-17T11:16:42.141Z,1.60
2023-05-17T11:19:08.691Z,2.10
2023-05-17T11:21:35.297Z,1.90
2023-05-17T11:24:01.713Z,1.83
2023-05-17T11:26:28.154Z,1.73
2023-05-17T11:28:54.639Z,2.35
2023-05-17T11:31:21.069Z,1.75
2023-05-17T11:33:47.558Z,2.00
2023-05-17T11:36:14.059Z,1.85
2023-05-17T11:38:40.520Z,1.80
2023-05-17T11:41:10.340Z,2.00
2023-05-17T11:43:39.506Z,1.52
2023-05-17T11:46:06.017Z,1.63
2023-05-17T11:48:32.743Z,2.20
2023-05-17T11:51:01.974Z,2.35
2023-05-17T11:53:28.928Z,2.08
2023-05-17T11:55:55.420Z,1.98
2023-05-17T11:58:21.928Z,2.10
2023-05-17T12:00:48.459Z,1.50
2023-05-17T12:03:15.025Z,1.58
2023-05-17T12:05:41.559Z,1.90
2023-05-17T12:08:08.060Z,2.72
2023-05-17T12:10:35.038Z,2.33
2023-05-17T12:13:01.753Z,2.20
2023-05-17T12:15:28.225Z,2.78
2023-05-17T12:17:54.822Z,1.88
2023-05-17T12:20:21.478Z,2.22
2023-05-17T12:22:47.986Z,1.58
2023-05-17T12:25:14.428Z,2.03
2023-05-17T12:27:40.913Z,1.85
2023-05-17T12:30:07.366Z,2.05
2023-05-17T12:32:33.859Z,2.08
2023-05-17T12:35:00.314Z,1.67
2023-05-17T12:37:26.753Z,2.47
2023-05-17T12:39:53.234Z,2.30
2023-05-17T12:42:19.654Z,2.20
2023-05-17T12:44:46.122Z,2.13
2023-05-17T12:47:12.620Z,2.60
2023-05-17T12:49:39.091Z,2.45
2023-05-17T12:52:05.532Z,2.22
2023-05-17T12:54:32.009Z,2.30
2023-05-17T12:56:58.491Z,1.90
2023-05-17T12:59:24.955Z,1.92
2023-05-17T13:01:51.387Z,2.10
2023-05-17T13:04:18.050Z,2.00
2023-05-17T13:06:44.562Z,1.67
2023-05-17T13:09:11.044Z,1.95
2023-05-17T13:11:37.522Z,1.60
2023-05-17T13:14:04.014Z,2.05
2023-05-17T13:16:30.477Z,2.25
2023-05-17T13:18:57.097Z,1.67
2023-05-17T13:21:23.596Z,2.08
2023-05-17T13:23:50.082Z,1.67
2023-05-17T13:26:16.558Z,1.90
2023-05-17T13:28:42.980Z,1.80
2023-05-17T13:31:09.428Z,1.80
2023-05-17T13:33:36.042Z,1.90
2023-05-17T13:36:02.623Z,2.08
2023-05-17T13:38:29.098Z,2.45
2023-05-17T13:40:55.599Z,2.20
2023-05-17T13:43:22.102Z,2.20
2023-05-17T13:45:48.576Z,2.45
2023-05-17T13:48:15.151Z,1.77
2023-05-17T13:50:41.635Z,1.98
2023-05-17T13:53:08.109Z,1.83
2023-05-17T13:55:34.556Z,1.50
2023-05-17T13:58:01.043Z,2.17
2023-05-17T14:00:27.720Z,1.30
2023-05-17T14:02:54.407Z,1.83
2023-05-17T14:05:20.882Z,1.70
2023-05-17T14:07:47.420Z,1.92
2023-05-17T14:10:13.908Z,1.65
2023-05-17T14:12:40.341Z,2.15
2023-05-17T14:15:06.820Z,1.98
2023-05-17T14:17:33.303Z,1.42
2023-05-17T14:19:59.955Z,2.42
2023-05-17T14:22:26.458Z,1.73
2023-05-17T14:24:52.910Z,1.80
2023-05-17T14:27:19.339Z,1.77
2023-05-17T14:29:45.801Z,1.60
2023-05-17T14:32:12.317Z,1.60
2023-05-17T14:34:38.817Z,1.30
2023-05-17T14:37:05.285Z,1.40
2023-05-17T14:39:31.757Z,1.27
2023-05-17T14:41:58.185Z,1.15
2023-05-17T14:44:24.613Z,1.40
2023-05-17T14:46:51.081Z,1.50
2023-05-17T14:49:17.685Z,1.40
2023-05-17T14:51:44.189Z,1.65
2023-05-17T14:54:12.280Z,1.33
2023-05-17T14:56:40.054Z,1.30
2023-05-17T14:59:06.529Z,1.70
2023-05-17T15:01:33.033Z,1.55
2023-05-17T15:03:59.634Z,1.45
2023-05-17T15:06:26.227Z,1.20
2023-05-17T15:08:52.722Z,1.20
2023-05-17T15:11:19.192Z,1.20
2023-05-17T15:13:45.650Z,1.73
2023-05-17T15:16:12.182Z,1.30
2023-05-17T15:18:38.677Z,1.50
2023-05-17T15:21:05.183Z,1.27
2023-05-17T15:23:31.710Z,1.35
2023-05-17T15:25:58.190Z,1.30
2023-05-17T15:28:24.671Z,1.30
2023-05-17T15:30:51.089Z,1.48
2023-05-17T15:33:17.679Z,1.67
2023-05-17T15:35:44.181Z,1.55
2023-05-17T15:38:10.604Z,1.15
2023-05-17T15:40:37.084Z,1.40
2023-05-17T15:43:03.611Z,1.17
2023-05-17T15:45:30.335Z,1.35
2023-05-17T15:47:57.249Z,1.25
2023-05-17T15:50:23.835Z,1.20
2023-05-17T15:52:50.327Z,1.70
2023-05-17T15:55:16.749Z,1.70
2023-05-17T15:57:43.205Z,1.20
2023-05-17T16:00:09.788Z,1.60
2023-05-17T16:02:36.269Z,1.70
2023-05-17T16:05:03.867Z,1.63
2023-05-17T16:07:30.646Z,1.48
2023-05-17T16:09:57.088Z,1.52
2023-05-17T16:12:23.513Z,1.58
2023-05-17T16:14:49.998Z,1.70
2023-05-17T16:17:16.517Z,1.50
2023-05-17T16:19:42.978Z,1.35
2023-05-17T16:22:09.485Z,1.38
2023-05-17T16:24:35.961Z,1.95
2023-05-17T16:27:02.453Z,1.73
2023-05-17T16:29:28.921Z,1.40
2023-05-17T16:31:55.405Z,1.70
2023-05-17T16:34:21.912Z,1.60
2023-05-17T16:36:48.434Z,1.40
2023-05-17T16:39:14.920Z,1.20
2023-05-17T16:41:41.389Z,1.70
2023-05-17T16:44:07.878Z,1.38
2023-05-17T16:46:34.377Z,1.77
2023-05-17T16:49:00.912Z,1.40
2023-05-17T16:51:27.533Z,1.40
2023-05-17T16:53:54.002Z,1.88
2023-05-17T16:56:20.507Z,1.50
2023-05-17T16:58:47.223Z,1.40
2023-05-17T17:01:13.690Z,1.90
2023-05-17T17:03:40.180Z,1.63
2023-05-17T17:06:06.702Z,1.45
2023-05-17T17:08:33.130Z,1.25
2023-05-17T17:10:59.596Z,1.42
2023-05-17T17:13:26.243Z,1.50
2023-05-17T17:15:52.691Z,1.67
2023-05-17T17:18:19.173Z,1.35
2023-05-17T17:20:45.748Z,1.13
2023-05-17T17:23:12.165Z,1.15
2023-05-17T17:25:38.661Z,1.38
2023-05-17T17:28:05.153Z,1.40
2023-05-17T17:30:31.882Z,1.02
2023-05-17T17:32:58.748Z,1.42
2023-05-17T17:35:25.299Z,1.83
2023-05-17T17:37:51.780Z,1.40
2023-05-17T17:40:18.364Z,1.10
2023-05-17T17:42:44.821Z,1.20
2023-05-17T17:45:11.280Z,1.20
2023-05-17T17:47:37.910Z,1.40
2023-05-17T17:50:04.451Z,1.98
2023-05-17T17:52:31.098Z,1.20
2023-05-17T17:54:57.880Z,1.40
2023-05-17T17:57:24.304Z,1.70
2023-05-17T17:59:50.721Z,1.15
2023-05-17T18:02:17.358Z,1.10
2023-05-17T18:04:43.842Z,1.70
2023-05-17T18:07:10.299Z,1.05
2023-05-17T18:09:36.836Z,1.20
2023-05-17T18:12:03.325Z,1.40
2023-05-17T18:14:29.813Z,0.90
2023-05-17T18:16:56.898Z,1.20
2023-05-17T18:19:23.590Z,1.58
2023-05-17T18:21:50.128Z,1.20
2023-05-17T18:24:16.673Z,1.35
2023-05-17T18:26:43.148Z,1.25
2023-05-17T18:29:09.646Z,1.13
2023-05-17T18:31:36.128Z,1.38
2023-05-17T18:34:02.627Z,1.33
2023-05-17T18:36:29.058Z,1.10
2023-05-17T18:38:55.495Z,1.20
2023-05-17T18:41:21.992Z,1.27
2023-05-17T18:43:48.439Z,1.30
2023-05-17T18:46:14.866Z,1.30
2023-05-17T18:48:41.368Z,1.27
2023-05-17T18:51:07.845Z,1.27
2023-05-17T18:53:34.356Z,1.27
2023-05-17T18:56:00.817Z,2.00
2023-05-17T18:58:27.497Z,1.10
2023-05-17T19:00:54.011Z,1.17
2023-05-17T19:03:20.466Z,1.60
2023-05-17T19:05:46.928Z,1.13
2023-05-17T19:08:13.413Z,1.67
2023-05-17T19:10:39.841Z,1.35
2023-05-17T19:13:06.365Z,1.70
2023-05-17T19:15:32.826Z,1.02
2023-05-17T19:17:59.352Z,1.20
2023-05-17T19:20:25.837Z,1.02
2023-05-17T19:22:52.317Z,0.93
2023-05-17T19:25:20.866Z,1.40
2023-05-17T19:27:47.635Z,1.30
2023-05-17T19:30:14.135Z,1.23
2023-05-17T19:32:40.646Z,1.10
2023-05-17T19:35:07.161Z,1.30
2023-05-17T19:37:33.607Z,1.33
2023-05-17T19:40:00.075Z,1.42
2023-05-17T19:42:26.758Z,1.30
2023-05-17T19:44:53.257Z,1.30
2023-05-17T19:47:19.694Z,0.85
2023-05-17T19:49:46.312Z,1.00
2023-05-17T19:52:12.849Z,1.00
2023-05-17T19:54:39.297Z,1.00
2023-05-17T19:57:05.788Z,0.98
2023-05-17T19:59:32.314Z,1.20
2023-05-17T20:01:58.859Z,1.35
2023-05-17T20:04:25.391Z,1.38
2023-05-17T20:06:51.896Z,0.98
2023-05-17T20:09:18.402Z,1.30
2023-05-17T20:11:44.864Z,1.35
2023-05-17T20:14:11.366Z,1.67
2023-05-17T20:16:37.838Z,1.05
2023-05-17T20:19:04.343Z,1.15
2023-05-17T20:21:30.831Z,1.35
2023-05-17T20:23:57.806Z,1.25
2023-05-17T20:26:24.227Z,1.55
2023-05-17T20:28:50.739Z,1.02
2023-05-17T20:31:17.288Z,1.58
2023-05-17T20:33:43.734Z,0.90
2023-05-17T20:36:10.222Z,1.20
2023-05-17T20:38:36.653Z,1.15
2023-05-17T20:41:03.149Z,1.33
2023-05-17T20:43:29.630Z,1.00
2023-05-17T20:45:56.946Z,1.02
2023-05-17T20:48:23.441Z,1.17
2023-05-17T20:50:49.894Z,0.90
2023-05-17T20:53:16.769Z,1.50
2023-05-17T20:55:43.184Z,1.40
2023-05-17T20:58:09.652Z,1.55
2023-05-17T21:00:36.135Z,1.40
2023-05-17T21:03:02.715Z,1.55
2023-05-17T21:05:29.312Z,1.48
2023-05-17T21:07:55.761Z,1.60
2023-05-17T21:10:22.281Z,1.30
2023-05-17T21:12:48.760Z,1.67
2023-05-17T21:15:17.395Z,1.63
2023-05-17T21:17:57.949Z,1.25
2023-05-17T21:20:24.906Z,1.35
2023-05-17T21:22:51.515Z,1.70
2023-05-17T21:25:18.002Z,1.60
2023-05-17T21:27:44.752Z,1.45
2023-05-17T21:30:11.268Z,1.67
2023-05-17T21:32:37.770Z,1.52
2023-05-17T21:35:04.282Z,1.42
2023-05-17T21:37:30.775Z,1.50
2023-05-17T21:39:57.871Z,1.70
2023-05-17T21:42:24.316Z,1.70
2023-05-17T21:44:50.785Z,1.77
2023-05-17T21:47:17.443Z,1.30
2023-05-17T21:49:43.882Z,1.55
2023-05-17T21:52:10.364Z,2.15
2023-05-17T21:54:36.837Z,1.70
2023-05-17T21:57:03.341Z,1.80
2023-05-17T21:59:29.865Z,1.58
2023-05-17T22:01:56.920Z,1.42
2023-05-17T22:04:23.366Z,1.45
2023-05-17T22:06:49.827Z,1.70
2023-05-17T22:09:16.444Z,1.73
2023-05-17T22:11:43.123Z,1.58
2023-05-17T22:14:09.547Z,1.67
2023-05-17T22:16:36.111Z,1.40
2023-05-17T22:19:02.770Z,1.40
2023-05-17T22:21:29.222Z,1.33
2023-05-17T22:23:55.657Z,1.60
2023-05-17T22:26:22.130Z,1.42
2023-05-17T22:28:48.650Z,1.45
2023-05-17T22:31:15.271Z,1.45
2023-05-17T22:33:41.797Z,1.33
2023-05-17T22:36:08.263Z,1.30
2023-05-17T22:38:34.773Z,1.50
2023-05-17T22:41:01.276Z,1.17
2023-05-17T22:43:27.813Z,1.40
2023-05-17T22:45:54.298Z,1.95
2023-05-17T22:48:20.828Z,1.73
2023-05-17T22:50:47.345Z,1.55
2023-05-17T22:53:13.807Z,1.60
2023-05-17T22:55:40.313Z,1.30
2023-05-17T22:58:06.786Z,1.65
2023-05-17T23:00:33.247Z,1.75
2023-05-17T23:02:59.761Z,1.60
2023-05-17T23:05:26.455Z,2.10
2023-05-17T23:07:53.122Z,1.73
2023-05-17T23:10:19.613Z,1.70
2023-05-17T23:12:46.120Z,1.60
2023-05-17T23:15:12.624Z,1.98
2023-05-17T23:17:39.284Z,2.00
2023-05-17T23:20:05.823Z,2.00
2023-05-17T23:22:32.307Z,1.80
2023-05-17T23:24:58.800Z,1.58
2023-05-17T23:27:25.217Z,2.05
2023-05-17T23:29:51.697Z,1.90
2023-05-17T23:32:18.181Z,1.80
2023-05-17T23:34:44.666Z,1.90
2023-05-17T23:37:11.099Z,1.90
2023-05-17T23:39:37.531Z,1.48
2023-05-17T23:42:03.973Z,1.67
2023-05-17T23:44:30.456Z,1.65
2023-05-17T23:46:56.908Z,1.63
2023-05-17T23:49:23.378Z,1.65
2023-05-17T23:51:49.817Z,1.73
2023-05-17T23:54:16.275Z,1.92
2023-05-17T23:56:42.848Z,2.00
2023-05-17T23:59:09.278Z,2.40
